Time;durP1;ratioP1;P1;durP2;ratioP2;P2;SDS_P1;SDS_P2;PMS_P1;PMS_P2;Temp;Humidity;BMP_temperature;BMP_pressure;BME280_temperature;BME280_humidity;BME280_pressure;Samples;Min_cycle;Max_cycle;Signal;HPM_P1;HPM_P2
2022/10/27 00:00:28;;;;;;;11.80;5.70;;;12.80;99.90;;;;;;5050092;28;20044;-61
2022/10/27 00:02:56;;;;;;;11.80;5.30;;;12.50;99.90;;;;;;5050527;28;20037;-63
2022/10/27 00:05:25;;;;;;;16.95;5.35;;;12.70;99.90;;;;;;5050330;28;20033;-64
2022/10/27 00:07:50;;;;;;;16.33;5.15;;;12.80;99.90;;;;;;5032069;28;20037;-61
2022/10/27 00:10:16;;;;;;;11.85;5.22;;;12.80;99.90;;;;;;5044576;28;20419;-61
2022/10/27 00:12:43;;;;;;;15.63;6.10;;;;;;;;;;5034011;28;20515;-61
2022/10/27 00:15:09;;;;;;;17.02;6.57;;;;;;;;;;5050584;28;20033;-62
2022/10/27 00:17:35;;;;;;;12.10;5.60;;;12.90;99.90;;;;;;5031476;28;20087;-63
2022/10/27 00:20:04;;;;;;;13.77;6.22;;;13.30;99.90;;;;;;5060398;28;20464;-61
2022/10/27 00:22:30;;;;;;;15.57;5.43;;;12.90;99.90;;;;;;5049567;28;20048;-61
2022/10/27 00:24:56;;;;;;;14.48;6.05;;;12.90;99.90;;;;;;5050060;28;20037;-62
2022/10/27 00:27:22;;;;;;;19.63;7.07;;;;;;;;;;5050577;28;20071;-61
2022/10/27 00:29:48;;;;;;;18.98;5.97;;;13.00;99.90;;;;;;5049933;28;20045;-61
2022/10/27 00:32:14;;;;;;;15.73;5.97;;;;;;;;;;5050323;28;20047;-61
2022/10/27 00:34:42;;;;;;;12.90;6.10;;;;;;;;;;5049874;28;20033;-61
2022/10/27 00:37:08;;;;;;;18.30;6.32;;;13.10;99.90;;;;;;5049775;28;20036;-61
2022/10/27 00:39:34;;;;;;;19.10;6.53;;;13.00;99.90;;;;;;5049874;28;20044;-61
2022/10/27 00:41:59;;;;;;;16.38;6.88;;;12.50;99.90;;;;;;5054331;28;20394;-61
2022/10/27 00:44:31;;;;;;;16.10;6.30;;;;;;;;;;5054910;28;20037;-61
2022/10/27 00:47:03;;;;;;;13.63;6.28;;;;;;;;;;5053969;28;20037;-64
2022/10/27 00:49:33;;;;;;;17.38;6.55;;;;;;;;;;5055769;28;20411;-64
2022/10/27 00:52:04;;;;;;;16.80;6.55;;;13.20;99.90;;;;;;5041533;28;20390;-62
2022/10/27 00:54:41;;;;;;;21.23;6.68;;;13.00;99.90;;;;;;5031718;28;20049;-61
2022/10/27 00:57:08;;;;;;;20.40;6.97;;;;;;;;;;5042999;28;20514;-61
2022/10/27 00:59:35;;;;;;;15.70;7.57;;;;;;;;;;5050747;28;20037;-59
2022/10/27 01:02:01;;;;;;;17.80;7.70;;;12.90;99.90;;;;;;5058412;28;20542;-61
2022/10/27 01:04:42;;;;;;;16.52;8.65;;;;;;;;;;5049777;28;20045;-62
2022/10/27 01:07:08;;;;;;;23.95;10.80;;;;;;;;;;5049078;28;20044;-60
2022/10/27 01:09:34;;;;;;;20.38;10.68;;;13.00;99.90;;;;;;5049911;28;20041;-60
2022/10/27 01:12:00;;;;;;;17.52;10.95;;;13.10;99.90;;;;;;5049724;28;20487;-61
2022/10/27 01:14:29;;;;;;;20.58;10.48;;;13.10;99.90;;;;;;5048691;28;20088;-61
2022/10/27 01:17:06;;;;;;;19.83;11.40;;;13.30;99.90;;;;;;5049363;28;20037;-61
2022/10/27 01:19:51;;;;;;;22.63;11.40;;;;;;;;;;5059429;28;20116;-61
2022/10/27 01:22:35;;;;;;;24.52;12.63;;;;;;;;;;5056260;28;20121;-60
2022/10/27 01:25:04;;;;;;;20.25;12.00;;;;;;;;;;5051284;28;20068;-62
2022/10/27 01:27:40;;;;;;;22.27;12.18;;;;;;;;;;5055846;28;20510;-62
2022/10/27 01:30:19;;;;;;;24.42;12.43;;;;;;;;;;5062024;28;20048;-61
2022/10/27 01:32:51;;;;;;;27.05;13.20;;;;;;;;;;5053501;28;20037;-61
2022/10/27 01:35:48;;;;;;;19.70;12.70;;;13.00;99.90;;;;;;5053365;28;20047;-62
2022/10/27 01:38:17;;;;;;;18.08;11.70;;;;;;;;;;5047647;28;20033;-63
2022/10/27 01:40:49;;;;;;;25.17;12.95;;;;;;;;;;5053094;28;20676;-62
2022/10/27 01:43:19;;;;;;;23.75;12.88;;;;;;;;;;5053417;28;20360;-63
2022/10/27 01:45:49;;;;;;;22.27;13.73;;;12.80;99.90;;;;;;5055549;28;20045;-62
2022/10/27 01:48:15;;;;;;;23.65;13.52;;;;;;;;;;5052566;28;20047;-62
2022/10/27 01:50:42;;;;;;;27.08;13.15;;;;;;;;;;5035173;28;20082;-62
2022/10/27 01:53:10;;;;;;;21.85;13.38;;;;;;;;;;5052784;28;20037;-62
2022/10/27 01:55:44;;;;;;;24.15;13.68;;;;;;;;;;5053117;28;20041;-62
2022/10/27 01:58:10;;;;;;;22.73;12.77;;;;;;;;;;5044303;28;20116;-62
2022/10/27 02:00:55;;;;;;;23.17;14.02;;;;;;;;;;5052977;28;20559;-62
2022/10/27 02:03:46;;;;;;;23.30;13.25;;;12.80;99.90;;;;;;5052689;28;20029;-63
2022/10/27 02:06:21;;;;;;;21.77;13.35;;;12.50;99.90;;;;;;5041893;28;20123;-61
2022/10/27 02:09:01;;;;;;;19.85;12.05;;;13.00;99.90;;;;;;5055010;28;20036;-63
2022/10/27 02:11:29;;;;;;;21.50;11.63;;;13.30;99.90;;;;;;5063374;28;20036;-60
2022/10/27 02:13:58;;;;;;;23.27;12.43;;;;;;;;;;5044102;28;20491;-61
2022/10/27 02:16:27;;;;;;;20.70;13.10;;;;;;;;;;5052398;28;20146;-61
2022/10/27 02:19:00;;;;;;;21.73;15.02;;;12.80;99.90;;;;;;5048686;28;20454;-62
2022/10/27 02:21:26;;;;;;;21.73;14.38;;;;;;;;;;5052609;28;20040;-61
2022/10/27 02:23:52;;;;;;;22.13;14.25;;;;;;;;;;5052101;28;20037;-60
2022/10/27 02:26:22;;;;;;;21.75;13.32;;;;;;;;;;5051888;28;20491;-63
2022/10/27 02:29:05;;;;;;;23.08;15.20;;;;;;;;;;5051192;28;20045;-61
2022/10/27 02:31:38;;;;;;;19.23;13.00;;;12.60;99.90;;;;;;5052162;28;20033;-63
2022/10/27 02:34:05;;;;;;;21.27;13.10;;;;;;;;;;5051985;28;20072;-61
2022/10/27 02:36:35;;;;;;;21.02;12.55;;;;;;;;;;5050756;28;20032;-63
2022/10/27 02:39:01;;;;;;;22.25;14.63;;;;;;;;;;5051312;28;20525;-61
2022/10/27 02:41:30;;;;;;;20.58;13.57;;;12.80;99.90;;;;;;5051603;28;20041;-62
2022/10/27 02:43:56;;;;;;;23.17;14.90;;;;;;;;;;5030918;28;20079;-63
2022/10/27 02:46:21;;;;;;;18.90;13.55;;;12.90;99.90;;;;;;5053258;28;20653;-61
2022/10/27 02:48:47;;;;;;;19.75;14.63;;;12.80;99.90;;;;;;5059396;28;20072;-62
2022/10/27 02:51:16;;;;;;;19.58;11.30;;;;;;;;;;5050268;28;20044;-62
2022/10/27 02:53:41;;;;;;;20.80;13.50;;;12.90;99.90;;;;;;5051817;28;20186;-61
2022/10/27 02:56:16;;;;;;;20.92;14.43;;;;;;;;;;5051430;28;20498;-61
2022/10/27 02:58:45;;;;;;;20.05;11.90;;;12.90;99.90;;;;;;5051035;28;20033;-62
2022/10/27 03:01:10;;;;;;;22.00;14.73;;;13.30;99.90;;;;;;5038632;28;20037;-61
2022/10/27 03:03:36;;;;;;;20.35;13.65;;;13.00;99.90;;;;;;5051597;28;20040;-61
2022/10/27 03:06:05;;;;;;;17.55;12.75;;;;;;;;;;5050131;28;20406;-61
2022/10/27 03:08:31;;;;;;;22.00;13.52;;;13.10;99.90;;;;;;5050890;28;20040;-60
2022/10/27 03:10:56;;;;;;;23.25;14.35;;;13.10;99.90;;;;;;5033055;28;20525;-61
2022/10/27 03:13:22;;;;;;;21.67;13.55;;;12.60;99.90;;;;;;5051339;28;20037;-61
2022/10/27 03:15:50;;;;;;;21.17;13.82;;;13.20;99.90;;;;;;5051672;28;20062;-63
2022/10/27 03:18:16;;;;;;;23.55;14.90;;;13.20;99.90;;;;;;5050679;28;20040;-63
2022/10/27 03:20:44;;;;;;;22.33;13.40;;;;;;;;;;5050800;28;20029;-61
2022/10/27 03:23:13;;;;;;;21.10;13.57;;;;;;;;;;5055201;28;20033;-61
2022/10/27 03:25:45;;;;;;;26.27;13.27;;;13.90;99.90;;;;;;5050826;28;20037;-62
2022/10/27 03:28:11;;;;;;;21.45;13.15;;;12.90;99.90;;;;;;5055457;28;20116;-63
2022/10/27 03:30:37;;;;;;;24.83;13.38;;;;;;;;;;5032954;28;20129;-61
2022/10/27 03:33:03;;;;;;;19.08;13.40;;;13.30;99.90;;;;;;5050745;28;20486;-61
2022/10/27 03:35:32;;;;;;;20.10;13.88;;;;;;;;;;5041283;28;20044;-61
2022/10/27 03:38:05;;;;;;;23.17;15.23;;;13.10;99.90;;;;;;5043170;28;20035;-61
2022/10/27 03:40:31;;;;;;;21.88;12.80;;;13.80;99.90;;;;;;5050553;28;20033;-61
2022/10/27 03:42:57;;;;;;;17.48;13.02;;;13.20;99.90;;;;;;5050620;28;20453;-61
2022/10/27 03:45:27;;;;;;;24.60;13.63;;;;;;;;;;5050421;28;20052;-62
2022/10/27 03:48:04;;;;;;;22.67;14.68;;;13.80;99.90;;;;;;5052008;28;20416;-62
2022/10/27 03:50:33;;;;;;;21.85;13.95;;;13.60;99.90;;;;;;5050481;28;20053;-63
2022/10/27 03:53:07;;;;;;;18.98;13.55;;;;;;;;;;5050576;28;20080;-61
2022/10/27 03:55:34;;;;;;;22.50;14.77;;;13.30;99.90;;;;;;5050404;28;20097;-61
2022/10/27 03:57:59;;;;;;;17.98;12.63;;;13.00;99.90;;;;;;5048580;28;20044;-61
2022/10/27 04:00:30;;;;;;;20.83;13.52;;;13.20;99.90;;;;;;5058018;28;20055;-62
2022/10/27 04:02:56;;;;;;;22.83;13.85;;;13.10;99.90;;;;;;5049970;28;20392;-61
2022/10/27 04:05:22;;;;;;;19.02;12.57;;;13.10;99.90;;;;;;5049327;28;20066;-62
2022/10/27 04:07:48;;;;;;;23.10;14.93;;;13.00;99.90;;;;;;5048700;28;20538;-61
2022/10/27 04:10:20;;;;;;;21.83;13.25;;;13.00;99.90;;;;;;5049673;28;20041;-63
2022/10/27 04:12:49;;;;;;;22.40;13.70;;;12.70;99.90;;;;;;5050066;28;20074;-61
2022/10/27 04:15:16;;;;;;;19.02;12.00;;;;;;;;;;5050192;28;20403;-61
2022/10/27 04:17:41;;;;;;;19.45;13.07;;;12.80;99.90;;;;;;5051581;28;20175;-62
2022/10/27 04:20:08;;;;;;;20.15;12.77;;;;;;;;;;5056251;28;20099;-62
2022/10/27 04:22:33;;;;;;;24.30;15.10;;;13.00;99.90;;;;;;5053952;28;20047;-62
2022/10/27 04:25:02;;;;;;;20.20;14.20;;;;;;;;;;5049942;28;20033;-62
2022/10/27 04:27:28;;;;;;;22.45;15.30;;;12.90;99.90;;;;;;5045052;28;20037;-62
2022/10/27 04:29:53;;;;;;;22.15;13.57;;;12.60;99.90;;;;;;5037353;28;20075;-62
2022/10/27 04:32:22;;;;;;;22.92;14.85;;;;;;;;;;5047944;28;20071;-63
2022/10/27 04:34:48;;;;;;;24.73;16.35;;;13.00;99.90;;;;;;5026561;28;20095;-62
2022/10/27 04:37:13;;;;;;;20.95;12.63;;;12.80;99.90;;;;;;5041265;28;20443;-62
2022/10/27 04:39:39;;;;;;;23.05;14.48;;;13.20;99.90;;;;;;5054658;28;20049;-62
2022/10/27 04:42:09;;;;;;;22.65;14.48;;;12.70;99.90;;;;;;5043086;28;20461;-62
2022/10/27 04:44:35;;;;;;;29.80;15.32;;;13.10;99.90;;;;;;5048443;28;20049;-62
2022/10/27 04:47:03;;;;;;;22.42;13.95;;;13.00;99.90;;;;;;5048544;28;20033;-63
2022/10/27 04:49:29;;;;;;;22.58;13.35;;;13.00;99.90;;;;;;5024629;28;20056;-61
2022/10/27 04:51:55;;;;;;;20.45;13.57;;;12.60;99.90;;;;;;5037722;28;20029;-62
2022/10/27 04:54:24;;;;;;;21.52;12.75;;;13.20;99.90;;;;;;5037679;28;20422;-65
2022/10/27 04:56:49;;;;;;;20.50;13.10;;;13.20;99.90;;;;;;5027512;28;20479;-62
2022/10/27 04:59:15;;;;;;;20.90;12.18;;;13.10;99.90;;;;;;5031792;28;20072;-64
2022/10/27 05:01:41;;;;;;;19.90;11.65;;;;;;;;;;5042895;28;21540;-62
2022/10/27 05:04:10;;;;;;;21.00;11.88;;;;;;;;;;5048141;28;20391;-61
2022/10/27 05:06:35;;;;;;;18.08;10.27;;;13.10;99.90;;;;;;5044113;28;20124;-64
2022/10/27 05:09:03;;;;;;;19.92;11.25;;;;;;;;;;5047485;28;20448;-63
2022/10/27 05:11:29;;;;;;;19.15;12.20;;;13.60;99.90;;;;;;5047369;28;20414;-61
2022/10/27 05:13:54;;;;;;;24.80;11.88;;;14.00;99.90;;;;;;5050919;28;20128;-63
2022/10/27 05:16:21;;;;;;;21.30;11.93;;;;;;;;;;5049922;28;20045;-64
2022/10/27 05:18:47;;;;;;;18.95;11.73;;;13.20;99.90;;;;;;5042943;28;20120;-62
2022/10/27 05:21:13;;;;;;;17.55;12.30;;;13.80;99.90;;;;;;5049626;28;20116;-63
2022/10/27 05:23:39;;;;;;;22.17;10.80;;;13.40;99.90;;;;;;5052331;28;20040;-63
2022/10/27 05:26:05;;;;;;;19.38;11.57;;;;;;;;;;5051109;28;20036;-61
2022/10/27 05:28:36;;;;;;;16.55;11.50;;;13.50;99.90;;;;;;5049578;28;20041;-62
2022/10/27 05:31:02;;;;;;;17.90;10.43;;;12.90;99.90;;;;;;5053273;28;20041;-62
2022/10/27 05:33:28;;;;;;;16.65;10.52;;;13.40;99.90;;;;;;5058585;28;20119;-63
2022/10/27 05:35:54;;;;;;;17.42;10.55;;;13.50;99.90;;;;;;5044993;28;20035;-63
2022/10/27 05:38:20;;;;;;;17.63;10.82;;;;;;;;;;5048309;28;20091;-61
2022/10/27 05:40:53;;;;;;;16.48;10.68;;;;;;;;;;5047208;28;20032;-64
2022/10/27 05:43:22;;;;;;;15.50;10.13;;;13.50;99.90;;;;;;5054973;28;20044;-59
2022/10/27 05:45:48;;;;;;;18.30;9.95;;;13.50;99.90;;;;;;5060439;28;20040;-61
2022/10/27 05:48:14;;;;;;;16.50;9.90;;;;;;;;;;5053532;28;20028;-62
2022/10/27 05:50:40;;;;;;;15.35;9.95;;;13.60;99.90;;;;;;5065586;28;20211;-61
2022/10/27 05:53:05;;;;;;;17.25;11.27;;;13.50;99.90;;;;;;5044332;28;20195;-61
2022/10/27 05:55:32;;;;;;;16.60;9.68;;;12.90;99.90;;;;;;5056758;28;20035;-61
2022/10/27 05:58:04;;;;;;;15.30;9.73;;;13.40;99.90;;;;;;5035654;28;20082;-62
2022/10/27 06:00:35;;;;;;;17.23;10.35;;;14.10;99.90;;;;;;5062802;28;20557;-63
2022/10/27 06:03:06;;;;;;;16.63;10.35;;;;;;;;;;5049247;28;20041;-62
2022/10/27 06:05:32;;;;;;;18.58;10.00;;;;;;;;;;5046728;28;20047;-61
2022/10/27 06:07:58;;;;;;;17.20;10.82;;;14.30;99.90;;;;;;5050127;28;20041;-62
2022/10/27 06:10:24;;;;;;;15.05;10.10;;;;;;;;;;5048927;28;20410;-62
2022/10/27 06:12:50;;;;;;;17.27;10.40;;;;;;;;;;5065151;28;20106;-62
2022/10/27 06:15:19;;;;;;;14.10;9.43;;;;;;;;;;5044495;28;20509;-62
2022/10/27 06:17:51;;;;;;;17.98;10.85;;;;;;;;;;5055514;28;20049;-64
2022/10/27 06:20:16;;;;;;;17.95;11.75;;;13.30;99.90;;;;;;5064545;28;20033;-62
2022/10/27 06:22:46;;;;;;;17.00;10.88;;;;;;;;;;5048098;28;20059;-61
2022/10/27 06:25:11;;;;;;;17.05;10.57;;;14.00;99.90;;;;;;5061901;28;20048;-62
2022/10/27 06:27:37;;;;;;;18.40;11.25;;;;;;;;;;5066408;28;20033;-60
2022/10/27 06:30:04;;;;;;;17.67;10.38;;;13.40;99.90;;;;;;5058618;28;20040;-61
2022/10/27 06:32:29;;;;;;;16.98;9.35;;;13.20;99.90;;;;;;5057363;28;20098;-61
2022/10/27 06:34:55;;;;;;;17.38;9.90;;;;;;;;;;5064463;28;20032;-62
2022/10/27 06:37:21;;;;;;;14.50;9.27;;;13.70;99.90;;;;;;5045265;28;20048;-61
2022/10/27 06:39:50;;;;;;;17.98;9.32;;;13.70;99.90;;;;;;5043512;28;20044;-63
2022/10/27 06:42:16;;;;;;;17.15;9.52;;;13.00;99.90;;;;;;5053881;28;20048;-61
2022/10/27 06:44:42;;;;;;;17.58;9.48;;;13.70;99.90;;;;;;5062363;28;20088;-61
2022/10/27 06:47:08;;;;;;;12.02;8.43;;;;;;;;;;5048079;28;20079;-61
2022/10/27 06:49:36;;;;;;;16.67;9.45;;;13.30;99.90;;;;;;5055479;28;20037;-61
2022/10/27 06:52:05;;;;;;;16.00;9.18;;;13.60;99.90;;;;;;5062327;28;20037;-62
2022/10/27 06:54:30;;;;;;;16.15;9.90;;;14.10;99.90;;;;;;5053188;28;20441;-62
2022/10/27 06:56:56;;;;;;;15.52;9.15;;;14.20;99.90;;;;;;5067510;28;20025;-62
2022/10/27 06:59:22;;;;;;;13.52;9.25;;;;;;;;;;5056137;28;20052;-62
2022/10/27 07:01:48;;;;;;;15.25;9.60;;;14.20;99.90;;;;;;5059729;28;20340;-61
2022/10/27 07:04:16;;;;;;;14.57;9.02;;;13.90;99.90;;;;;;5059982;28;20033;-61
2022/10/27 07:06:42;;;;;;;13.30;8.35;;;13.50;99.90;;;;;;5060112;28;20037;-62
2022/10/27 07:09:07;;;;;;;16.98;9.85;;;13.40;99.90;;;;;;5057263;28;20040;-62
2022/10/27 07:11:33;;;;;;;16.90;9.18;;;13.50;99.90;;;;;;5036369;28;20040;-63
2022/10/27 07:13:58;;;;;;;20.52;9.82;;;13.40;99.90;;;;;;5059437;28;20029;-62
2022/10/27 07:16:30;;;;;;;15.77;9.88;;;13.20;99.90;;;;;;5053398;28;20398;-62
2022/10/27 07:18:56;;;;;;;16.10;9.82;;;14.20;99.90;;;;;;5048764;28;20117;-64
2022/10/27 07:21:21;;;;;;;19.65;10.48;;;13.70;99.90;;;;;;5051806;28;20083;-60
2022/10/27 07:23:47;;;;;;;17.50;10.30;;;13.50;99.90;;;;;;5060566;28;20047;-62
2022/10/27 07:26:12;;;;;;;15.40;10.32;;;13.50;99.90;;;;;;5046251;28;20036;-62
2022/10/27 07:28:38;;;;;;;15.38;8.93;;;13.80;99.90;;;;;;5059382;28;20118;-61
2022/10/27 07:31:04;;;;;;;15.57;9.50;;;13.20;99.90;;;;;;5059090;28;20418;-62
2022/10/27 07:33:29;;;;;;;18.75;9.50;;;14.40;99.90;;;;;;5065387;28;20036;-61
2022/10/27 07:35:55;;;;;;;17.35;9.27;;;14.20;99.90;;;;;;5059090;28;20040;-62
2022/10/27 07:38:24;;;;;;;16.83;9.63;;;;;;;;;;5064910;28;20116;-62
2022/10/27 07:40:49;;;;;;;18.92;10.35;;;14.00;99.90;;;;;;5055357;28;20040;-63
2022/10/27 07:43:16;;;;;;;16.83;9.88;;;;;;;;;;5065488;28;20059;-62
2022/10/27 07:45:42;;;;;;;14.63;10.32;;;13.90;99.90;;;;;;5059314;28;20475;-61
2022/10/27 07:48:12;;;;;;;13.70;9.45;;;;;;;;;;5059168;28;20040;-62
2022/10/27 07:50:38;;;;;;;14.73;9.38;;;;;;;;;;5050869;28;20107;-62
2022/10/27 07:53:04;;;;;;;15.23;9.68;;;13.50;99.90;;;;;;5059192;28;20340;-62
2022/10/27 07:55:31;;;;;;;14.52;9.52;;;;;;;;;;5065603;28;20078;-62
2022/10/27 07:58:03;;;;;;;15.60;10.00;;;;;;;;;;5050621;28;20355;-61
2022/10/27 08:00:33;;;;;;;15.90;9.20;;;13.50;99.90;;;;;;5066870;28;20072;-62
2022/10/27 08:03:03;;;;;;;14.23;8.85;;;13.90;99.90;;;;;;5063236;28;20056;-63
2022/10/27 08:05:31;;;;;;;16.27;9.25;;;14.10;99.90;;;;;;5033091;28;20132;-62
2022/10/27 08:08:02;;;;;;;17.02;10.02;;;13.70;99.90;;;;;;5067095;28;20052;-61
2022/10/27 08:10:29;;;;;;;14.40;9.52;;;13.40;99.90;;;;;;5060559;28;20033;-61
2022/10/27 08:12:55;;;;;;;12.88;9.05;;;14.00;99.90;;;;;;5059745;28;20040;-61
2022/10/27 08:15:21;;;;;;;14.23;9.02;;;14.50;99.90;;;;;;5052091;28;20112;-61
2022/10/27 08:17:54;;;;;;;13.55;7.78;;;;;;;;;;5052923;28;20036;-61
2022/10/27 08:20:21;;;;;;;12.45;7.80;;;;;;;;;;5055051;28;20041;-61
2022/10/27 08:22:53;;;;;;;13.02;9.20;;;;;;;;;;5050492;28;20559;-63
2022/10/27 08:25:19;;;;;;;12.02;7.80;;;;;;;;;;5050784;28;20072;-61
2022/10/27 08:27:45;;;;;;;13.82;7.57;;;14.20;99.90;;;;;;5060838;28;20076;-63
2022/10/27 08:30:11;;;;;;;12.40;7.72;;;14.20;99.90;;;;;;5062480;28;20044;-62
2022/10/27 08:32:36;;;;;;;11.23;6.82;;;14.40;99.90;;;;;;5062004;28;20080;-61
2022/10/27 08:35:08;;;;;;;14.13;7.55;;;;;;;;;;5065059;28;20081;-62
2022/10/27 08:37:34;;;;;;;13.63;6.43;;;14.50;99.90;;;;;;5060669;28;20032;-61
2022/10/27 08:39:59;;;;;;;11.98;6.72;;;14.60;99.90;;;;;;5062383;28;20402;-62
2022/10/27 08:42:37;;;;;;;10.30;6.05;;;15.30;99.90;;;;;;5060966;28;20044;-62
2022/10/27 08:45:14;;;;;;;7.78;5.28;;;15.00;99.90;;;;;;5059259;28;20141;-62
2022/10/27 08:47:40;;;;;;;10.43;5.70;;;14.90;99.90;;;;;;5055495;28;20045;-62
2022/10/27 08:50:26;;;;;;;9.25;5.97;;;15.30;99.90;;;;;;5061851;28;20098;-62
2022/10/27 08:52:57;;;;;;;9.20;5.05;;;;;;;;;;5050409;28;20116;-63
2022/10/27 08:55:28;;;;;;;11.88;5.32;;;;;;;;;;5064540;28;20490;-62
2022/10/27 08:58:33;;;;;;;10.45;4.90;;;15.40;99.90;;;;;;5059401;28;20129;-61
2022/10/27 09:01:05;;;;;;;8.85;5.30;;;15.40;99.90;;;;;;5048270;28;20036;-61
2022/10/27 09:03:45;;;;;;;11.75;4.65;;;;;;;;;;5049315;28;20063;-61
2022/10/27 09:06:20;;;;;;;10.65;4.88;;;15.60;99.90;;;;;;5058210;28;20112;-62
2022/10/27 09:09:04;;;;;;;8.05;5.15;;;15.70;99.90;;;;;;5052446;28;20060;-61
2022/10/27 09:11:57;;;;;;;9.25;4.05;;;15.30;99.90;;;;;;5054065;28;20037;-62
2022/10/27 09:14:45;;;;;;;8.32;4.30;;;15.70;99.90;;;;;;5061890;28;20486;-62
2022/10/27 09:17:20;;;;;;;9.15;4.47;;;16.00;99.90;;;;;;5054734;28;20087;-63
2022/10/27 09:20:16;;;;;;;11.13;4.72;;;15.60;99.90;;;;;;5059388;28;20036;-62
2022/10/27 09:22:42;;;;;;;8.52;4.60;;;16.80;99.90;;;;;;5050506;28;20304;-61
2022/10/27 09:25:21;;;;;;;8.48;4.03;;;15.80;99.90;;;;;;5056090;28;20080;-61
2022/10/27 09:27:57;;;;;;;9.07;4.03;;;16.70;99.90;;;;;;5057282;28;20214;-61
2022/10/27 09:30:34;;;;;;;7.97;3.60;;;16.90;99.90;;;;;;5060120;28;20058;-62
2022/10/27 09:33:00;;;;;;;10.30;4.15;;;16.60;99.90;;;;;;5036470;28;20566;-61
2022/10/27 09:35:28;;;;;;;9.73;3.95;;;16.20;99.90;;;;;;5060551;28;20139;-61
2022/10/27 09:37:56;;;;;;;8.95;4.00;;;16.90;99.90;;;;;;5059139;28;20521;-61
2022/10/27 09:40:24;;;;;;;10.05;3.85;;;16.60;99.90;;;;;;5138213;22;20026;-59
2022/10/27 09:43:01;;;;;;;8.02;4.40;;;16.10;99.90;;;;;;5069468;28;20425;-59
2022/10/27 09:45:27;;;;;;;7.60;4.43;;;17.20;99.90;;;;;;5076023;28;20036;-61
2022/10/27 09:48:05;;;;;;;9.35;4.00;;;16.70;99.90;;;;;;5090473;28;20405;-60
2022/10/27 09:50:44;;;;;;;9.23;4.85;;;16.60;99.90;;;;;;5094132;28;20048;-60
2022/10/27 09:53:34;;;;;;;10.35;4.55;;;16.50;99.90;;;;;;5094203;28;20036;-59
2022/10/27 09:56:03;;;;;;;11.23;5.35;;;16.90;99.90;;;;;;5088014;28;20370;-60
2022/10/27 09:58:29;;;;;;;9.65;4.03;;;17.30;99.90;;;;;;5093664;28;20225;-61
2022/10/27 10:01:05;;;;;;;7.65;3.97;;;17.40;99.90;;;;;;5075858;28;20047;-61
2022/10/27 10:03:31;;;;;;;9.20;3.95;;;16.80;99.90;;;;;;5091155;28;20402;-59
2022/10/27 10:06:02;;;;;;;10.48;5.03;;;17.10;99.90;;;;;;5094080;28;20032;-61
2022/10/27 10:08:29;;;;;;;7.07;3.55;;;;;;;;;;5075161;28;20557;-60
2022/10/27 10:11:17;;;;;;;7.57;4.05;;;17.00;99.90;;;;;;5092839;28;20036;-61
2022/10/27 10:13:58;;;;;;;9.35;4.30;;;16.90;99.90;;;;;;5074151;28;20040;-60
2022/10/27 10:16:27;;;;;;;8.77;3.97;;;17.10;99.90;;;;;;5093497;28;20028;-59
2022/10/27 10:19:05;;;;;;;7.30;3.97;;;16.90;99.90;;;;;;5087674;28;20032;-60
2022/10/27 10:21:44;;;;;;;9.40;3.63;;;17.30;99.90;;;;;;5075397;28;20047;-60
2022/10/27 10:24:39;;;;;;;9.43;4.05;;;17.50;99.90;;;;;;5093217;28;20460;-60
2022/10/27 10:27:05;;;;;;;9.45;4.50;;;17.20;99.90;;;;;;5076091;28;20051;-60
2022/10/27 10:29:50;;;;;;;9.70;4.07;;;17.00;99.90;;;;;;5093343;28;20127;-60
2022/10/27 10:32:23;;;;;;;;;;;17.50;99.90;;;;;;5093494;28;20497;-60
2022/10/27 10:34:52;;;;;;;10.23;4.45;;;17.90;99.90;;;;;;5093304;28;19922;-60
2022/10/27 10:37:36;;;;;;;11.35;3.70;;;;;;;;;;5092854;28;20024;-60
2022/10/27 10:40:10;;;;;;;10.85;4.05;;;;;;;;;;5086689;28;20032;-60
2022/10/27 10:42:35;;;;;;;8.45;3.95;;;17.30;81.40;;;;;;5092968;28;20141;-60
2022/10/27 10:45:16;;;;;;;7.75;3.70;;;17.60;82.90;;;;;;5075138;28;20115;-60
2022/10/27 10:47:47;;;;;;;9.02;3.13;;;18.30;73.20;;;;;;5091888;28;20054;-60
2022/10/27 10:50:14;;;;;;;7.10;3.33;;;18.30;85.90;;;;;;5093138;28;20032;-60
2022/10/27 10:52:49;;;;;;;9.38;3.30;;;17.70;89.10;;;;;;5092375;28;20127;-60
2022/10/27 10:55:38;;;;;;;9.38;4.03;;;17.60;99.90;;;;;;5093168;28;20047;-60
2022/10/27 10:58:04;;;;;;;9.10;3.60;;;18.70;49.00;;;;;;5044070;28;20516;-59
2022/10/27 11:00:34;;;;;;;9.40;3.55;;;18.40;40.00;;;;;;5074676;28;20401;-59
2022/10/27 11:03:15;;;;;;;7.57;3.35;;;18.20;66.30;;;;;;5092621;28;20393;-59
2022/10/27 11:05:41;;;;;;;6.00;2.75;;;17.90;31.80;;;;;;5074478;28;20066;-58
2022/10/27 11:08:21;;;;;;;7.63;2.90;;;18.60;35.90;;;;;;5092135;28;20481;-60
2022/10/27 11:10:48;;;;;;;8.52;2.90;;;18.10;16.40;;;;;;5092457;28;20409;-59
2022/10/27 11:13:25;;;;;;;8.15;3.50;;;18.10;8.20;;;;;;5074209;28;20081;-60
2022/10/27 11:16:05;;;;;;;7.78;2.90;;;18.90;15.20;;;;;;5092368;28;20032;-60
2022/10/27 11:18:52;;;;;;;7.93;2.80;;;19.30;65.60;;;;;;5086938;28;20044;-59
2022/10/27 11:21:41;;;;;;;5.00;2.10;;;19.10;24.80;;;;;;5087611;28;20062;-60
2022/10/27 11:24:12;;;;;;;6.28;2.65;;;19.00;44.50;;;;;;5092193;28;20039;-60
2022/10/27 11:26:42;;;;;;;6.22;2.17;;;19.70;1.00;;;;;;5073813;28;20044;-60
2022/10/27 11:29:11;;;;;;;7.15;2.30;;;19.20;3.50;;;;;;5091881;28;20039;-60
2022/10/27 11:31:43;;;;;;;6.05;2.25;;;19.70;1.00;;;;;;5092321;28;20051;-59
2022/10/27 11:34:36;;;;;;;7.85;2.78;;;19.70;1.00;;;;;;5091859;28;20135;-60
2022/10/27 11:37:21;;;;;;;9.30;2.70;;;;;;;;;;5084489;28;20051;-58
2022/10/27 11:39:51;;;;;;;7.95;2.60;;;20.40;1.00;;;;;;5091074;28;20036;-59
2022/10/27 11:42:42;;;;;;;8.38;2.88;;;20.40;1.00;;;;;;5073593;28;20070;-59
2022/10/27 11:45:25;;;;;;;8.40;2.25;;;20.40;1.00;;;;;;5067580;28;20040;-59
2022/10/27 11:48:08;;;;;;;5.30;1.83;;;20.40;1.00;;;;;;5090285;28;20501;-59
2022/10/27 11:50:41;;;;;;;6.50;2.40;;;21.20;1.00;;;;;;5092038;28;20039;-59
2022/10/27 11:53:09;;;;;;;5.93;2.15;;;20.60;1.00;;;;;;5090742;28;20169;-59
2022/10/27 11:56:05;;;;;;;6.72;2.08;;;20.60;1.00;;;;;;5073178;28;20115;-59
2022/10/27 11:58:57;;;;;;;6.07;2.05;;;21.10;1.00;;;;;;5087969;28;20051;-59
2022/10/27 12:01:32;;;;;;;7.32;2.25;;;21.60;1.00;;;;;;5090692;28;20055;-59
2022/10/27 12:04:19;;;;;;;4.72;1.70;;;20.90;1.00;;;;;;5091372;28;20051;-59
2022/10/27 12:06:49;;;;;;;8.93;2.50;;;21.50;1.00;;;;;;5090945;28;20394;-59
2022/10/27 12:09:44;;;;;;;7.95;2.67;;;22.80;1.00;;;;;;5091108;28;20036;-59
2022/10/27 12:12:32;;;;;;;6.37;2.00;;;22.40;1.00;;;;;;5085277;28;20093;-59
2022/10/27 12:15:11;;;;;;;5.85;1.88;;;21.90;1.00;;;;;;5073179;28;20036;-59
2022/10/27 12:17:42;;;;;;;5.55;1.83;;;22.40;1.00;;;;;;5085803;28;20029;-59
2022/10/27 12:20:14;;;;;;;5.90;2.40;;;21.90;99.90;;;;;;5072180;28;20040;-58
2022/10/27 12:22:46;;;;;;;5.60;2.05;;;22.60;1.00;;;;;;5091165;28;20040;-59
2022/10/27 12:25:31;;;;;;;4.95;1.92;;;22.10;1.00;;;;;;5090978;28;20032;-59
2022/10/27 12:28:01;;;;;;;7.22;1.90;;;21.50;1.00;;;;;;5083203;28;20188;-59
2022/10/27 12:30:27;;;;;;;6.03;2.00;;;22.10;1.00;;;;;;5091245;28;20040;-59
2022/10/27 12:32:55;;;;;;;6.00;2.00;;;20.40;1.00;;;;;;5090952;28;20043;-59
2022/10/27 12:35:46;;;;;;;6.95;2.08;;;21.00;1.00;;;;;;5072725;28;20867;-59
2022/10/27 12:38:26;;;;;;;5.53;1.80;;;20.80;1.00;;;;;;5085368;28;20038;-59
2022/10/27 12:41:17;;;;;;;4.40;1.85;;;21.60;1.00;;;;;;5090691;28;20115;-59
2022/10/27 12:43:48;;;;;;;5.88;2.05;;;20.80;1.00;;;;;;5090746;28;20075;-59
2022/10/27 12:46:52;;;;;;;4.82;1.60;;;21.20;1.00;;;;;;5090914;28;20036;-59
2022/10/27 12:49:27;;;;;;;7.38;1.77;;;20.10;1.00;;;;;;5030041;28;20125;-59
2022/10/27 12:52:02;;;;;;;8.30;1.85;;;20.60;1.00;;;;;;5090613;28;20073;-59
2022/10/27 12:54:49;;;;;;;5.65;1.83;;;20.00;1.00;;;;;;5091170;28;20040;-59
2022/10/27 12:57:24;;;;;;;5.70;2.00;;;20.30;1.00;;;;;;5085367;28;20040;-59
2022/10/27 12:59:52;;;;;;;;;;;19.80;1.00;;;;;;5073238;28;20071;-59
2022/10/27 13:02:26;;;;;;;7.07;2.08;;;19.80;1.00;;;;;;5071853;28;19916;-59
2022/10/27 13:05:31;;;;;;;5.75;1.73;;;19.90;1.00;;;;;;5090841;28;20051;-59
2022/10/27 13:08:30;;;;;;;5.80;1.80;;;19.80;1.00;;;;;;5090145;28;20093;-59
2022/10/27 13:11:17;;;;;;;7.07;1.80;;;19.90;1.00;;;;;;5047829;28;20144;-59
2022/10/27 13:13:43;;;;;;;7.15;1.85;;;19.80;1.00;;;;;;5089380;28;20092;-59
2022/10/27 13:16:30;;;;;;;5.63;1.90;;;19.70;1.00;;;;;;5090421;28;20118;-59
2022/10/27 13:19:28;;;;;;;5.82;1.83;;;19.70;1.00;;;;;;5082188;28;20024;-59
2022/10/27 13:22:12;;;;;;;6.63;1.98;;;19.70;1.00;;;;;;5033856;28;20514;-59
2022/10/27 13:24:50;;;;;;;5.00;1.88;;;19.60;1.00;;;;;;5092508;28;20044;-59
2022/10/27 13:27:41;;;;;;;6.53;2.15;;;19.70;1.00;;;;;;5094075;28;20075;-59